Airfield :
LOGIN :

Register | Disclaimer

   EN    FR    IT 

 










Legend :    VFR   Marginal VFR   IFR   Intensive IFR   Very Intensive IFR
Visi :
Ceiling :
>= 8 km
>= 3000ft
5 to 8 km
1000 to 3000 ft
1500m to 5 km
500 to 1000 ft
800 to 1500m
200 to 500 ft
< 800m
< 200 ft
Symbols :   Thunderstorms  Fog  Heavy snow  Heavy precipitations  Wind > 20 kt
SIGMETs :     Misc.  Thunderstorms  Icing  Turbulence  Mountain Waves  Volcanic Ashes







- Airport Elevation : 47 ft
- IATA code : CBG
- Download approach charts


EGSC - Cambridge

CURRENT METAR :
  • 201220Z 36007KT 9999 SCT032 18/10 Q1012

EXPIRED METARs :
  • 201150Z 35007KT 9999 SCT030 18/10 Q1012
  • 201120Z 35009KT 9999 SCT030 17/09 Q1012
  • 201050Z 35008KT 310V050 9999 FEW024 17/10 Q1012
  • 201020Z 36009KT 320V030 9999 FEW020 17/10 Q1012
  • 200950Z 36007KT 320V030 9000 FEW018 16/10 Q1012

TAF TAF EGSC
Valid from the 20 at 12:00 until the 20 at 19:00 UTC


201059Z 2012/2019 34008KT 9999 SCT016
PROB30
TEMPO 2013/2018 7000 SHRA
No reported NOTAMs for that airfield.
1 SIGMET reported for the London FIR (EGTT) :
 
Embedded thunderstorms
EGTT SIGMET 02 VALID 200845/201245 EGRR
EGTT LONDON FIR EMBD TS FCST WI N5500 E00500 - N5404 E00412 - N5348 E00231 - N5500 E00231 - N5500 E00500 TOP FL280 MOV NW 10KT NC=



MET'MAP, your aeronautical weather chart ! - Copyright ORBIFLY December 2007 - Disclaimer

ORBIFLY MET'MAP TEAM :

Programming & Development : Alexandra Zaïnal
Concept & Development : Baudouin d'Aumeries
Co-Development & Prog : Marc-Olivier Méhu
Technical & hardware support : Manuel Goepfert

Contact : metmap@orbifly.com




SOURCES & CREDITS :

   NOAA